• Join FlightAware (Why Join?)
  • Login
  • US Flag 
12:14PM EST


 

Airport Tracker/Info


-or-


 

Live Flight TrackerFlight Track Log ✈ N500HY ✈ 08-May-2013 ✈ KIND - KPGV

Flight Track Log - Related Links

Times and Time Zones

All times are in EDT time to prevent confusion due to time zone crossing. See the N500HY flight status page for this flight to view local times or setup timezone preferences in your user account.

Time Position Orientation Groundspeed Altitude Reporting Facility
EDT Latitude Longitude Course Direction KTS MPH feet Rate Location/Type
05:11PM 39.7167 -86.2667 123° Southeast 177 204 1,200  Level Indianapolis TRACON
05:12PM 39.6833 -86.2000 123° Southeast 227 261 3,400 2,460 Climbing Indianapolis TRACON
05:13PM 39.7167 -86.1167 63° Northeast 265 305 5,900 3,000 Climbing Indianapolis TRACON
05:14PM 39.7411 -86.0311 70° East 249 287 9,400 3,000 Climbing Indianapolis Center
05:15PM 39.7672 -85.9511 67° East 244 281 12,300 1,980 Climbing Indianapolis Center
05:16PM 39.7839 -85.8628 76° East 253 291 13,600 1,500 Climbing Indianapolis Center
05:17PM 39.7989 -85.7719 78° East 258 297 15,400 1,680 Climbing Indianapolis Center
05:18PM 39.7961 -85.6731 92° East 285 328 17,100 1,680 Climbing Indianapolis Center
05:19PM 39.7758 -85.5742 105° East 284 327 18,900 1,860 Climbing Indianapolis Center
05:20PM 39.7575 -85.4467 101° East 298 343 21,000 1,740 Climbing Indianapolis Center
05:21PM 39.7419 -85.3314 100° East 320 368 22,600 1,140 Climbing Indianapolis Center
05:22PM 39.7092 -85.2100 109° East 356 410 23,400 1,200 Climbing Indianapolis Center
05:23PM 39.6519 -85.0919 122° Southeast 383 441 25,100 1,500 Climbing Indianapolis Center
05:24PM 39.5969 -84.9733 121° Southeast 386 444 26,500 1,320 Climbing Indianapolis Center
05:25PM 39.5294 -84.8311 122° Southeast 389 448 27,900 1,200 Climbing Indianapolis Center
05:26PM 39.4717 -84.7039 120° Southeast 399 459 29,100 1,200 Climbing Indianapolis Center
05:27PM 39.4111 -84.5769 122° Southeast 409 471 30,400 1,200 Climbing Indianapolis Center
05:28PM 39.3511 -84.4500 121° Southeast 411 473 31,700 1,260 Climbing Indianapolis Center
05:29PM 39.3008 -84.3206 117° Southeast 403 464 33,100 1,080 Climbing Indianapolis Center
05:30PM 39.2586 -84.1867 112° Southeast 401 461 34,000 960 Climbing Indianapolis Center
05:31PM 39.2094 -84.0300 112° Southeast 403 464 35,200 1,020 Climbing Indianapolis Center
05:32PM 39.1686 -83.8922 111° Southeast 408 470 36,200 840 Climbing Indianapolis Center
05:33PM 39.1175 -83.7619 117° Southeast 412 474 37,000 360 Climbing Indianapolis Center
05:35PM 39.0533 -83.6342 123° Southeast 423 487 37,000  Level Indianapolis Center
05:36PM 38.9853 -83.5017 123° Southeast 438 504 37,000  Level Indianapolis Center
05:37PM 38.9172 -83.3603 122° Southeast 455 524 37,000  Level Indianapolis Center
05:38PM 38.8475 -83.2250 123° Southeast 458 527 37,000  Level Indianapolis Center
05:39PM 38.7700 -83.0664 122° Southeast 458 527 37,000  Level Indianapolis Center
05:40PM 38.7006 -82.9272 123° Southeast 461 531 37,000  Level Indianapolis Center
05:41PM 38.6256 -82.7803 123° Southeast 470 541 37,000  Level Indianapolis Center
05:42PM 38.5528 -82.6397 123° Southeast 473 544 37,000  Level Indianapolis Center
05:43PM 38.4806 -82.4997 123° Southeast 473 544 37,000  Level Indianapolis Center
05:44PM 38.4117 -82.3675 124° Southeast 472 543 37,000  Level Indianapolis Center
05:45PM 38.3258 -82.2025 124° Southeast 468 539 37,000  Level Indianapolis Center
05:46PM 38.2558 -82.0678 123° Southeast 460 529 37,000  Level Indianapolis Center
05:47PM 38.1847 -81.9308 123° Southeast 464 534 37,000  Level Indianapolis Center
05:48PM 38.1133 -81.7958 124° Southeast 464 534 37,000  Level Indianapolis Center
05:49PM 38.0417 -81.6614 124° Southeast 463 533 37,000  Level Indianapolis Center
05:50PM 37.9708 -81.5281 124° Southeast 459 528 37,000  Level Indianapolis Center
05:51PM 37.8861 -81.3686 124° Southeast 458 527 37,000  Level Indianapolis Center
05:52PM 37.8167 -81.2358 123° Southeast 455 524 37,000  Level Indianapolis Center
05:53PM 37.7464 -81.1072 125° Southeast 456 525 37,000  Level Indianapolis Center
05:54PM 37.6728 -80.9758 125° Southeast 455 524 37,000  Level Washington Center
05:55PM 37.6072 -80.8533 124° Southeast 461 531 37,000  Level Washington Center
05:56PM 37.5339 -80.7197 125° Southeast 461 531 37,000 -360 Level Washington Center
05:57PM 37.4622 -80.5867 124° Southeast 466 536 36,300 -1,200 Descending Washington Center
05:58PM 37.3808 -80.4378 124° Southeast 475 547 34,700 -1,500 Descending Washington Center
05:59PM 37.3069 -80.3025 124° Southeast 475 547 33,300 -1,440 Descending Washington Center
06:00PM 37.2289 -80.1594 124° Southeast 482 555 31,900 -1,500 Descending Washington Center
06:01PM 37.1467 -80.0164 126° Southeast 494 568 30,400 -1,440 Descending Washington Center
06:02PM 37.0764 -79.8822 123° Southeast 505 581 29,000 -1,200 Descending Washington Center
06:03PM 36.9961 -79.7397 125° Southeast 510 587 28,000 -540 Descending Washington Center
06:04PM 36.9153 -79.5978 125° Southeast 510 587 28,000  Level Washington Center
06:05PM 36.8306 -79.4428 124° Southeast 510 587 28,000  Level Washington Center
06:06PM 36.7514 -79.3067 126° Southeast 510 587 28,000 -360 Level Washington Center
06:07PM 36.6725 -79.1631 124° Southeast 505 581 27,300 -1,200 Descending Washington Center
06:08PM 36.6050 -79.0461 126° Southeast 498 573 25,700 -1,680 Descending Washington Center
06:09PM 36.5275 -78.9108 125° Southeast 485 558 24,000 -900 Descending Washington Center
06:10PM 36.4517 -78.7786 125° Southeast 480 552 24,000  Level Washington Center
06:11PM 36.3719 -78.6411 126° Southeast 480 552 24,000 -720 Level Washington Center
06:12PM 36.3000 -78.5119 125° Southeast 475 547 22,600 -1,920 Descending Washington Center
06:13PM 36.2258 -78.3856 126° Southeast 470 541 20,200 -2,580 Descending Washington Center
06:14PM 36.1453 -78.2492 126° Southeast 452 520 17,500 -2,400 Descending Washington Center
06:15PM 36.0850 -78.1467 126° Southeast 435 501 15,400 -1,380 Descending Washington Center
06:16PM 36.0225 -78.0369 125° Southeast 406 467 14,800 -1,500 Descending Washington Center
06:17PM 35.9642 -77.9400 127° Southeast 375 432 12,500 -2,400 Descending Washington Center
06:18PM 35.9114 -77.8514 126° Southeast 347 399 10,100 -2,160 Descending Washington Center
06:19PM 35.8631 -77.7681 126° Southeast 318 366 8,200 -1,980 Descending Washington Center
06:20PM 35.8183 -77.6900 125° Southeast 298 343 6,200 -2,040 Descending Washington Center